Time;durP1;ratioP1;P1;durP2;ratioP2;P2;SDS_P1;SDS_P2;PMS_P1;PMS_P2;Temp;Humidity;BMP_temperature;BMP_pressure;BME280_temperature;BME280_humidity;BME280_pressure;Samples;Min_cycle;Max_cycle;Signal;HPM_P1;HPM_P2
2022/10/19 00:01:35;;;;;;;;;;;;;;;8.38;51.34;96597.19;5010402;28;19993;-76
2022/10/19 00:04:00;;;;;;;;;;;;;;;8.45;50.80;96592.16;5015417;28;19970;-75
2022/10/19 00:06:26;;;;;;;;;;;;;;;8.37;50.45;96592.84;5015239;28;20489;-76
2022/10/19 00:08:52;;;;;;;;;;;;;;;8.33;50.69;96588.78;5016852;28;19994;-75
2022/10/19 00:11:18;;;;;;;;;;;;;;;8.35;51.44;96592.16;5018159;28;20186;-76
2022/10/19 00:13:43;;;;;;;;;;;;;;;8.27;50.86;96594.69;5015262;28;19982;-76
2022/10/19 00:16:13;;;;;;;;;;;;;;;8.22;51.05;96591.59;5013385;28;20032;-76
2022/10/19 00:18:38;;;;;;;;;;;;;;;8.14;51.15;96587.84;4996268;28;20036;-76
2022/10/19 00:21:04;;;;;;;;;;;;;;;8.12;51.44;96583.63;5000556;28;20369;-76
2022/10/19 00:23:29;;;;;;;;;;;;;;;8.18;51.67;96588.38;5016820;28;20409;-75
2022/10/19 00:25:55;;;;;;;;;;;;;;;8.23;51.46;96586.13;5011551;28;20079;-76
2022/10/19 00:28:20;;;;;;;;;;;;;;;8.36;50.88;96590.34;5014696;28;20193;-75
2022/10/19 00:30:45;;;;;;;;;;;;;;;8.25;50.29;96584.19;5013102;28;20089;-77
2022/10/19 00:33:11;;;;;;;;;;;;;;;8.19;50.51;96584.75;5014130;28;19993;-76
2022/10/19 00:35:38;;;;;;;;;;;;;;;8.18;50.32;96588.38;4996810;28;20017;-76
2022/10/19 00:38:04;;;;;;;;;;;;;;;8.20;50.72;96588.25;5013851;28;20076;-76
2022/10/19 00:40:35;;;;;;;;;;;;;;;8.11;50.23;96582.81;5012811;28;20096;-75
2022/10/19 00:43:00;;;;;;;;;;;;;;;8.05;49.81;96586.00;5013233;28;20476;-76
2022/10/19 00:45:26;;;;;;;;;;;;;;;8.05;49.96;96591.31;5013912;28;20037;-76
2022/10/19 00:47:51;;;;;;;;;;;;;;;7.99;50.38;96584.72;5017170;28;20008;-76
2022/10/19 00:50:16;;;;;;;;;;;;;;;7.96;50.88;96587.66;5010975;28;20485;-75
2022/10/19 00:52:41;;;;;;;;;;;;;;;7.94;50.39;96592.28;4995160;28;19985;-75
2022/10/19 00:55:07;;;;;;;;;;;;;;;7.95;50.08;96582.50;5018579;28;20020;-76
2022/10/19 00:57:32;;;;;;;;;;;;;;;7.97;50.21;96586.69;5014549;28;20029;-76
2022/10/19 00:59:57;;;;;;;;;;;;;;;7.89;50.09;96584.72;5017731;28;20036;-76
2022/10/19 01:02:23;;;;;;;;;;;;;;;7.84;50.13;96583.44;5016273;28;19990;-75
2022/10/19 01:07:23;;;;;;;;;;;;;;;7.70;50.34;96580.19;5423302;23;19993;-77
2022/10/19 01:09:48;;;;;;;;;;;;;;;7.33;51.57;96588.72;5002899;28;20254;-77
2022/10/19 01:12:23;;;;;;;;;;;;;;;7.53;51.41;96573.72;4984955;28;19970;-77
2022/10/19 01:15:07;;;;;;;;;;;;;;;7.54;51.24;96570.94;5000669;28;19992;-77
2022/10/19 01:17:38;;;;;;;;;;;;;;;7.66;51.13;96576.16;5000895;28;20269;-77
2022/10/19 01:20:16;;;;;;;;;;;;;;;7.70;50.60;96580.19;5002910;28;19986;-77
2022/10/19 01:23:00;;;;;;;;;;;;;;;7.72;51.18;96582.72;4984952;28;20044;-77
2022/10/19 01:25:45;;;;;;;;;;;;;;;7.72;50.92;96586.19;5001122;28;20004;-77
2022/10/19 01:28:17;;;;;;;;;;;;;;;7.71;51.53;96586.31;4941599;28;20005;-77
2022/10/19 01:30:49;;;;;;;;;;;;;;;7.73;51.48;96587.88;5002057;28;19981;-77
2022/10/19 01:33:17;;;;;;;;;;;;;;;7.72;51.09;96580.88;4983539;28;20307;-77
2022/10/19 01:35:44;;;;;;;;;;;;;;;7.72;50.77;96575.59;5002553;28;19965;-77
2022/10/19 01:38:19;;;;;;;;;;;;;;;7.74;50.99;96567.50;4984261;28;19990;-77
2022/10/19 01:40:51;;;;;;;;;;;;;;;7.79;50.75;96576.75;4983453;28;20076;-77
2022/10/19 01:43:22;;;;;;;;;;;;;;;7.82;50.99;96572.16;4984231;28;19970;-77
2022/10/19 01:45:51;;;;;;;;;;;;;;;7.82;51.17;96567.69;5001966;28;20089;-77
2022/10/19 01:48:21;;;;;;;;;;;;;;;7.83;50.35;96571.19;4984492;28;20081;-77
2022/10/19 01:51:05;;;;;;;;;;;;;;;7.83;50.47;96565.88;4983926;28;20001;-77
2022/10/19 01:53:32;;;;;;;;;;;;;;;7.83;50.84;96569.38;4982208;28;19989;-77
2022/10/19 01:55:57;;;;;;;;;;;;;;;7.84;50.83;96560.44;4984709;28;20365;-77
2022/10/19 01:58:27;;;;;;;;;;;;;;;7.83;50.73;96561.44;4983662;28;20065;-77
2022/10/19 02:00:52;;;;;;;;;;;;;;;7.79;50.83;96554.72;4983926;28;19998;-77
2022/10/19 02:03:17;;;;;;;;;;;;;;;7.77;50.83;96559.31;5001244;28;19981;-77
2022/10/19 02:05:42;;;;;;;;;;;;;;;7.86;50.70;96562.97;4983709;28;19997;-77
2022/10/19 02:08:11;;;;;;;;;;;;;;;7.89;50.10;96558.19;4980467;28;20028;-77
2022/10/19 02:10:37;;;;;;;;;;;;;;;7.86;50.24;96561.13;4980157;28;19990;-77
2022/10/19 02:13:02;;;;;;;;;;;;;;;7.83;50.25;96558.78;4966071;28;20029;-77
2022/10/19 02:15:27;;;;;;;;;;;;;;;7.77;49.74;96562.81;4967549;28;20492;-77
2022/10/19 02:17:55;;;;;;;;;;;;;;;7.66;50.24;96555.75;4981402;28;19989;-77
2022/10/19 02:20:21;;;;;;;;;;;;;;;7.70;50.22;96555.50;4984626;28;19994;-77
2022/10/19 02:22:46;;;;;;;;;;;;;;;7.64;50.50;96554.22;4981056;28;19996;-77
2022/10/19 02:25:11;;;;;;;;;;;;;;;7.62;50.19;96546.41;4966875;28;20036;-77
2022/10/19 02:27:37;;;;;;;;;;;;;;;7.56;50.10;96552.28;4983555;28;20067;-77
2022/10/19 02:30:02;;;;;;;;;;;;;;;7.58;50.03;96541.53;4965076;28;20478;-77
2022/10/19 02:32:28;;;;;;;;;;;;;;;7.54;49.66;96540.94;5001906;28;19970;-77
2022/10/19 02:34:53;;;;;;;;;;;;;;;7.52;49.95;96545.56;4981316;28;19986;-77
2022/10/19 02:37:18;;;;;;;;;;;;;;;7.48;49.56;96534.38;4983022;28;20377;-77
2022/10/19 02:39:43;;;;;;;;;;;;;;;7.49;50.00;96530.78;4983117;28;20289;-77
2022/10/19 02:42:10;;;;;;;;;;;;;;;7.41;49.12;96531.44;4999711;28;19994;-77
2022/10/19 02:44:36;;;;;;;;;;;;;;;7.41;49.54;96528.78;4980413;28;20136;-77
2022/10/19 02:47:11;;;;;;;;;;;;;;;7.23;49.79;96527.75;4999283;28;20247;-77
2022/10/19 02:49:36;;;;;;;;;;;;;;;7.19;49.79;96523.69;4982350;28;19997;-77
2022/10/19 02:52:05;;;;;;;;;;;;;;;7.19;50.05;96521.06;4981714;28;19974;-77
2022/10/19 02:54:30;;;;;;;;;;;;;;;7.21;49.72;96514.66;4983362;28;20410;-77
2022/10/19 02:56:55;;;;;;;;;;;;;;;7.19;50.03;96513.09;4983057;28;20521;-77
2022/10/19 02:59:21;;;;;;;;;;;;;;;7.01;50.34;96516.41;4982866;28;19974;-77
2022/10/19 03:01:46;;;;;;;;;;;;;;;6.96;49.98;96513.31;4999489;28;20002;-77
2022/10/19 03:04:11;;;;;;;;;;;;;;;6.83;50.42;96516.19;4966201;28;20362;-77
2022/10/19 03:06:37;;;;;;;;;;;;;;;6.85;50.41;96517.72;4982585;28;20037;-77
2022/10/19 03:09:02;;;;;;;;;;;;;;;6.94;50.17;96515.25;5000107;28;19998;-77
2022/10/19 03:11:27;;;;;;;;;;;;;;;7.00;50.08;96509.41;5000698;28;19970;-77
2022/10/19 03:13:52;;;;;;;;;;;;;;;7.01;50.30;96511.13;4981416;28;20223;-77
2022/10/19 03:16:18;;;;;;;;;;;;;;;7.01;50.00;96511.94;5000019;28;20464;-77
2022/10/19 03:18:43;;;;;;;;;;;;;;;6.96;50.07;96506.22;4980284;28;20381;-77
2022/10/19 03:21:09;;;;;;;;;;;;;;;6.95;50.70;96512.47;4997564;28;20045;-77
2022/10/19 03:23:35;;;;;;;;;;;;;;;6.87;50.58;96513.13;4999225;28;19981;-77
2022/10/19 03:26:00;;;;;;;;;;;;;;;6.92;50.30;96507.44;4964608;28;20000;-77
2022/10/19 03:28:25;;;;;;;;;;;;;;;6.94;50.15;96512.63;4999687;28;20341;-77
2022/10/19 03:30:50;;;;;;;;;;;;;;;6.91;50.14;96508.44;4978919;28;20001;-77
2022/10/19 03:33:16;;;;;;;;;;;;;;;6.81;50.20;96515.47;4960731;28;19994;-77
2022/10/19 03:35:41;;;;;;;;;;;;;;;6.88;50.40;96506.03;4982752;28;20081;-77
2022/10/19 03:38:06;;;;;;;;;;;;;;;6.94;50.52;96509.97;4980265;28;20029;-77
2022/10/19 03:40:31;;;;;;;;;;;;;;;6.89;51.32;96508.56;4999745;28;19994;-77
2022/10/19 03:42:57;;;;;;;;;;;;;;;6.94;51.01;96497.53;4981473;28;19993;-77
2022/10/19 03:45:22;;;;;;;;;;;;;;;6.92;52.90;96509.25;4999354;28;20042;-77
2022/10/19 03:47:48;;;;;;;;;;;;;;;6.81;53.49;96502.25;5000624;28;20503;-77
2022/10/19 03:50:15;;;;;;;;;;;;;;;6.71;53.31;96503.03;4999222;28;19989;-77
2022/10/19 03:52:41;;;;;;;;;;;;;;;6.79;54.87;96507.66;4982033;28;20072;-77
2022/10/19 03:55:06;;;;;;;;;;;;;;;7.04;52.86;96507.34;4982689;28;20068;-77
2022/10/19 03:57:31;;;;;;;;;;;;;;;6.96;51.97;96506.22;4966187;28;20400;-77
2022/10/19 03:59:57;;;;;;;;;;;;;;;7.10;51.93;96512.94;4999147;28;19985;-77
2022/10/19 04:02:22;;;;;;;;;;;;;;;7.16;51.62;96514.22;4997520;28;20088;-77
2022/10/19 04:04:47;;;;;;;;;;;;;;;7.19;51.33;96519.25;4981081;28;19994;-77
2022/10/19 04:07:12;;;;;;;;;;;;;;;7.17;51.25;96507.94;4978046;28;19994;-77
2022/10/19 04:09:37;;;;;;;;;;;;;;;7.17;50.88;96509.78;4978097;28;20008;-77
2022/10/19 04:12:03;;;;;;;;;;;;;;;7.20;51.05;96505.03;4979532;28;19970;-77
2022/10/19 04:14:28;;;;;;;;;;;;;;;7.14;50.55;96510.84;4978293;28;20012;-77
2022/10/19 04:16:53;;;;;;;;;;;;;;;7.07;50.59;96507.09;4978227;28;20474;-77
2022/10/19 04:19:19;;;;;;;;;;;;;;;7.04;50.62;96516.13;4977070;28;20351;-77
2022/10/19 04:21:46;;;;;;;;;;;;;;;7.08;50.52;96500.81;4977334;28;20092;-77
2022/10/19 04:24:12;;;;;;;;;;;;;;;6.54;52.10;96501.84;4979496;28;20162;-77
2022/10/19 04:26:39;;;;;;;;;;;;;;;6.77;51.40;96513.09;4962554;28;19990;-77
2022/10/19 04:29:04;;;;;;;;;;;;;;;6.88;50.55;96513.97;4978290;28;19990;-77
2022/10/19 04:31:29;;;;;;;;;;;;;;;6.90;51.04;96512.03;4979885;28;19980;-77
2022/10/19 04:33:55;;;;;;;;;;;;;;;6.70;51.80;96511.13;4977379;28;20041;-77
2022/10/19 04:36:20;;;;;;;;;;;;;;;6.67;51.79;96504.28;4979859;28;20682;-77
2022/10/19 04:38:45;;;;;;;;;;;;;;;6.86;51.83;96513.25;4976523;28;19994;-77
2022/10/19 04:41:11;;;;;;;;;;;;;;;6.74;53.91;96515.16;4978328;28;19990;-77
2022/10/19 04:43:36;;;;;;;;;;;;;;;6.93;52.56;96511.75;4978403;28;19974;-77
2022/10/19 04:46:02;;;;;;;;;;;;;;;6.95;52.38;96509.84;4976737;28;20482;-77
2022/10/19 04:48:28;;;;;;;;;;;;;;;7.04;51.57;96517.94;4978668;28;19971;-77
2022/10/19 04:50:53;;;;;;;;;;;;;;;7.05;51.10;96511.66;4963621;28;20417;-77
2022/10/19 04:53:19;;;;;;;;;;;;;;;7.15;51.21;96521.31;4982248;28;19998;-77
2022/10/19 04:55:44;;;;;;;;;;;;;;;7.11;50.69;96519.09;4989208;28;19974;-77
2022/10/19 04:58:09;;;;;;;;;;;;;;;7.02;51.35;96529.53;4988280;28;19986;-77
2022/10/19 05:00:36;;;;;;;;;;;;;;;6.95;50.80;96527.53;4987688;28;20310;-77
2022/10/19 05:03:01;;;;;;;;;;;;;;;7.00;51.27;96525.31;4989486;28;20024;-77
2022/10/19 05:05:26;;;;;;;;;;;;;;;6.94;51.46;96515.25;4985253;28;20037;-77
2022/10/19 05:07:52;;;;;;;;;;;;;;;6.92;51.49;96525.97;4998328;28;19998;-77
2022/10/19 05:10:17;;;;;;;;;;;;;;;6.71;50.91;96515.44;4992395;28;20033;-77
2022/10/19 05:12:42;;;;;;;;;;;;;;;6.89;51.31;96524.44;4994728;28;19985;-77
2022/10/19 05:15:07;;;;;;;;;;;;;;;6.92;50.72;96517.19;5012768;28;19980;-77
2022/10/19 05:17:33;;;;;;;;;;;;;;;6.91;51.26;96519.00;5011779;28;20179;-77
2022/10/19 05:19:58;;;;;;;;;;;;;;;6.92;50.80;96509.25;4988855;28;19993;-77
2022/10/19 05:22:23;;;;;;;;;;;;;;;6.89;50.87;96508.56;4980158;28;20024;-77
2022/10/19 05:24:49;;;;;;;;;;;;;;;6.86;50.81;96508.81;5008645;28;20080;-77
2022/10/19 05:27:14;;;;;;;;;;;;;;;6.83;50.91;96495.03;5000504;28;20072;-77
2022/10/19 05:29:39;;;;;;;;;;;;;;;6.80;52.56;96501.38;4985469;28;19986;-77
2022/10/19 05:32:04;;;;;;;;;;;;;;;6.67;51.14;96496.34;4969441;28;19974;-77
2022/10/19 05:34:29;;;;;;;;;;;;;;;6.75;52.28;96500.97;4966552;28;20668;-77
2022/10/19 05:36:55;;;;;;;;;;;;;;;6.74;51.90;96494.00;4984008;28;19994;-76
2022/10/19 05:39:20;;;;;;;;;;;;;;;6.77;51.30;96489.25;4984031;28;19978;-76
2022/10/19 05:41:46;;;;;;;;;;;;;;;6.68;51.33;96487.41;4984383;28;20088;-77
2022/10/19 05:44:15;;;;;;;;;;;;;;;6.61;50.85;96488.91;5002649;28;19973;-76
2022/10/19 05:46:40;;;;;;;;;;;;;;;6.58;50.94;96484.72;5002445;28;19993;-77
2022/10/19 05:49:05;;;;;;;;;;;;;;;6.65;51.19;96485.03;4984331;28;20398;-77
2022/10/19 05:51:30;;;;;;;;;;;;;;;6.75;50.54;96480.63;4977479;28;20272;-77
2022/10/19 05:53:56;;;;;;;;;;;;;;;6.53;50.44;96480.81;4984245;28;20547;-77
2022/10/19 05:56:22;;;;;;;;;;;;;;;6.55;51.21;96477.03;4984770;28;19973;-77
2022/10/19 05:58:48;;;;;;;;;;;;;;;6.49;51.40;96480.19;4984590;28;19989;-77
2022/10/19 06:01:13;;;;;;;;;;;;;;;6.37;51.46;96492.66;4984073;28;20481;-77
2022/10/19 06:03:38;;;;;;;;;;;;;;;6.53;51.54;96496.66;4967379;28;19974;-77
2022/10/19 06:06:04;;;;;;;;;;;;;;;6.63;51.24;96486.97;4983908;28;19993;-77
2022/10/19 06:08:29;;;;;;;;;;;;;;;6.56;50.69;96493.78;4967282;28;19993;-77
2022/10/19 06:11:03;;;;;;;;;;;;;;;6.60;51.07;96492.53;4983891;28;19996;-77
2022/10/19 06:13:28;;;;;;;;;;;;;;;6.66;50.56;96492.00;4981586;28;19986;-76
2022/10/19 06:15:53;;;;;;;;;;;;;;;6.62;50.63;96490.59;5001525;28;20039;-76
2022/10/19 06:18:19;;;;;;;;;;;;;;;6.50;51.17;96488.00;4983303;28;19994;-77
2022/10/19 06:20:44;;;;;;;;;;;;;;;6.50;53.25;96495.94;4982809;28;19997;-77
2022/10/19 06:23:09;;;;;;;;;;;;;;;6.47;52.66;96490.88;5001094;28;20068;-77
2022/10/19 06:25:34;;;;;;;;;;;;;;;6.50;53.63;96495.94;5001259;28;19994;-76
2022/10/19 06:28:00;;;;;;;;;;;;;;;6.79;52.31;96502.38;4982490;28;19970;-76
2022/10/19 06:30:25;;;;;;;;;;;;;;;6.91;51.75;96497.84;4981540;28;19994;-76
2022/10/19 06:32:50;;;;;;;;;;;;;;;6.95;51.30;96501.91;4974448;28;20486;-67
2022/10/19 06:35:16;;;;;;;;;;;;;;;6.99;51.30;96498.00;4998567;28;20126;-67
2022/10/19 06:37:41;;;;;;;;;;;;;;;7.11;51.12;96503.19;4996794;28;20033;-67
2022/10/19 06:40:07;;;;;;;;;;;;;;;7.22;50.63;96507.56;5000151;28;20001;-67
2022/10/19 06:42:32;;;;;;;;;;;;;;;7.25;50.82;96502.81;4998241;28;20373;-67
2022/10/19 06:44:57;;;;;;;;;;;;;;;7.31;50.94;96501.44;4998132;28;19993;-67
2022/10/19 06:47:27;;;;;;;;;;;;;;;7.34;51.36;96503.00;4994822;28;19970;-67
2022/10/19 06:49:52;;;;;;;;;;;;;;;7.58;51.08;96507.91;4996041;28;20056;-67
2022/10/19 06:52:17;;;;;;;;;;;;;;;7.69;50.79;96509.63;4996979;28;19982;-67
2022/10/19 06:54:42;;;;;;;;;;;;;;;7.61;51.87;96512.09;4996344;28;19997;-67
2022/10/19 06:57:08;;;;;;;;;;;;;;;7.61;51.76;96504.97;4995655;28;19994;-67
2022/10/19 06:59:33;;;;;;;;;;;;;;;7.72;52.53;96509.31;4993615;28;19977;-67
2022/10/19 07:01:58;;;;;;;;;;;;;;;7.72;51.96;96509.31;4993731;28;19996;-67
2022/10/19 07:04:23;;;;;;;;;;;;;;;7.57;52.53;96510.69;4998683;28;20352;-67
2022/10/19 07:06:49;;;;;;;;;;;;;;;7.78;51.43;96514.09;4994005;28;20360;-67
2022/10/19 07:09:14;;;;;;;;;;;;;;;7.86;52.14;96509.94;4987791;28;20025;-67
2022/10/19 07:11:39;;;;;;;;;;;;;;;7.93;50.93;96516.34;4994372;28;19974;-67
2022/10/19 07:14:04;;;;;;;;;;;;;;;8.07;51.51;96515.09;4991990;28;20497;-67
2022/10/19 07:16:30;;;;;;;;;;;;;;;8.05;51.71;96523.19;4999793;28;20205;-67
2022/10/19 07:18:55;;;;;;;;;;;;;;;8.25;51.83;96517.88;4991549;28;20016;-67
2022/10/19 07:21:20;;;;;;;;;;;;;;;8.44;50.90;96527.63;4991615;28;20044;-67
2022/10/19 07:23:46;;;;;;;;;;;;;;;8.33;54.63;96525.13;4994976;28;20238;-67
2022/10/19 07:26:12;;;;;;;;;;;;;;;8.33;55.58;96522.47;4995638;28;20005;-67
2022/10/19 07:28:40;;;;;;;;;;;;;;;8.18;54.28;96517.59;4996196;28;20042;-67
2022/10/19 07:31:06;;;;;;;;;;;;;;;8.57;55.60;96518.53;4997757;28;19970;-67
2022/10/19 07:33:31;;;;;;;;;;;;;;;8.82;55.28;96516.22;4998395;28;20055;-67
2022/10/19 07:36:00;;;;;;;;;;;;;;;9.13;54.64;96516.00;4996458;28;20189;-67
2022/10/19 07:38:25;;;;;;;;;;;;;;;9.30;53.72;96514.38;4997016;28;19990;-67
2022/10/19 07:40:51;;;;;;;;;;;;;;;9.45;53.03;96509.41;4993923;28;20006;-67
2022/10/19 07:43:16;;;;;;;;;;;;;;;9.71;52.10;96516.66;4998714;28;20121;-67
2022/10/19 07:45:41;;;;;;;;;;;;;;;9.73;51.40;96511.19;4998637;28;20040;-69
2022/10/19 07:48:06;;;;;;;;;;;;;;;9.72;51.92;96521.00;4997450;28;20016;-69
2022/10/19 07:50:32;;;;;;;;;;;;;;;9.76;51.23;96526.81;4992654;28;20377;-69
2022/10/19 07:52:57;;;;;;;;;;;;;;;9.74;51.37;96525.31;4998132;28;19998;-68
2022/10/19 07:55:22;;;;;;;;;;;;;;;9.70;51.97;96520.28;4997147;28;20112;-70
2022/10/19 07:57:48;;;;;;;;;;;;;;;9.64;51.45;96515.59;4998072;28;20008;-70
2022/10/19 08:00:13;;;;;;;;;;;;;;;9.71;51.06;96515.81;4996373;28;20029;-69
2022/10/19 08:02:38;;;;;;;;;;;;;;;9.85;50.90;96514.47;4997139;28;19986;-69
2022/10/19 08:05:04;;;;;;;;;;;;;;;9.78;49.94;96510.72;4978930;28;20098;-68
2022/10/19 08:07:31;;;;;;;;;;;;;;;9.84;50.78;96521.63;4995440;28;20005;-69
2022/10/19 08:09:57;;;;;;;;;;;;;;;9.79;49.42;96523.88;4995805;28;20140;-69
2022/10/19 08:12:22;;;;;;;;;;;;;;;9.78;48.86;96524.03;4998221;28;20085;-70
2022/10/19 08:14:47;;;;;;;;;;;;;;;9.85;49.64;96522.44;4997511;28;20268;-70
2022/10/19 08:17:16;;;;;;;;;;;;;;;9.91;48.74;96513.00;4996555;28;20076;-70
2022/10/19 08:19:42;;;;;;;;;;;;;;;10.03;48.53;96517.13;4995011;28;20473;-70
2022/10/19 08:22:07;;;;;;;;;;;;;;;10.14;48.91;96516.09;4995362;28;20028;-69
2022/10/19 08:24:32;;;;;;;;;;;;;;;10.01;49.03;96508.47;4980884;28;20427;-68
2022/10/19 08:26:57;;;;;;;;;;;;;;;10.22;47.87;96512.66;5001468;28;20295;-70
2022/10/19 08:29:23;;;;;;;;;;;;;;;10.13;48.63;96517.06;4998249;28;19989;-69
2022/10/19 08:31:48;;;;;;;;;;;;;;;10.22;48.58;96523.28;5001135;28;19981;-69
2022/10/19 08:34:13;;;;;;;;;;;;;;;10.43;48.18;96519.47;4999918;28;20076;-69
2022/10/19 08:36:39;;;;;;;;;;;;;;;10.52;48.04;96513.22;4999190;28;19977;-69
2022/10/19 08:39:04;;;;;;;;;;;;;;;10.57;47.88;96510.91;4976218;28;19969;-69
2022/10/19 08:41:39;;;;;;;;;;;;;;;10.75;47.32;96518.03;4994990;28;20378;-69
2022/10/19 08:44:23;;;;;;;;;;;;;;;10.87;47.05;96514.09;5001810;28;20083;-69
2022/10/19 08:47:00;;;;;;;;;;;;;;;11.08;46.57;96510.22;4997784;28;20076;-69
2022/10/19 08:49:25;;;;;;;;;;;;;;;10.96;46.08;96509.66;4996947;28;19994;-70
2022/10/19 08:51:55;;;;;;;;;;;;;;;11.04;45.77;96516.00;4998045;28;19970;-69
2022/10/19 08:54:21;;;;;;;;;;;;;;;10.97;46.17;96510.47;5001764;28;19989;-69
2022/10/19 08:56:48;;;;;;;;;;;;;;;11.11;46.09;96515.25;4984306;28;20424;-68
2022/10/19 08:59:19;;;;;;;;;;;;;;;11.17;45.76;96504.94;5001334;28;20335;-68
2022/10/19 09:01:47;;;;;;;;;;;;;;;11.27;45.73;96500.34;4997073;28;20077;-69
2022/10/19 09:04:16;;;;;;;;;;;;;;;11.35;45.22;96503.03;4979275;28;20020;-69
2022/10/19 09:06:47;;;;;;;;;;;;;;;11.43;45.20;96509.38;4983703;28;20715;-69
2022/10/19 09:09:12;;;;;;;;;;;;;;;11.09;45.90;96503.09;4997670;28;20409;-66
2022/10/19 09:11:38;;;;;;;;;;;;;;;11.54;45.00;96500.25;5002043;28;19970;-68
2022/10/19 09:14:04;;;;;;;;;;;;;;;11.79;44.63;96501.13;4983093;28;20429;-68
2022/10/19 09:16:29;;;;;;;;;;;;;;;11.90;44.27;96494.66;4998799;28;19970;-69
2022/10/19 09:18:54;;;;;;;;;;;;;;;11.85;44.07;96495.16;4999659;28;20005;-69
2022/10/19 09:21:20;;;;;;;;;;;;;;;12.12;43.56;96487.88;5000775;28;19998;-69
2022/10/19 09:23:48;;;;;;;;;;;;;;;12.06;43.32;96483.19;4982461;28;19977;-69
2022/10/19 09:26:17;;;;;;;;;;;;;;;12.36;43.05;96472.00;4980856;28;19993;-69
2022/10/19 09:28:57;;;;;;;;;;;;;;;12.52;42.75;96476.50;4996161;28;20457;-69
2022/10/19 09:31:27;;;;;;;;;;;;;;;12.73;42.39;96467.94;4980270;28;19966;-69
2022/10/19 09:33:54;;;;;;;;;;;;;;;12.92;42.25;96466.69;4982040;28;20001;-67
2022/10/19 09:36:19;;;;;;;;;;;;;;;13.01;41.48;96464.03;4982540;28;20035;-67
2022/10/19 09:38:44;;;;;;;;;;;;;;;13.07;41.57;96471.38;4981663;28;20441;-67
2022/10/19 09:41:19;;;;;;;;;;;;;;;13.10;41.27;96471.03;4998720;28;20330;-68
2022/10/19 09:43:49;;;;;;;;;;;;;;;13.49;40.87;96460.50;4980375;28;20389;-67
2022/10/19 09:46:17;;;;;;;;;;;;;;;13.87;40.08;96470.44;4985227;28;20043;-79
2022/10/19 09:48:48;;;;;;;;;;;;;;;14.03;39.80;96466.81;4987281;28;19997;-79
2022/10/19 09:51:14;;;;;;;;;;;;;;;14.00;39.21;96469.88;4998833;28;20150;-78
2022/10/19 09:53:43;;;;;;;;;;;;;;;14.01;38.59;96475.03;4993585;28;20369;-79
2022/10/19 09:56:08;;;;;;;;;;;;;;;14.19;38.73;96476.59;4991289;28;20385;-79
2022/10/19 09:58:33;;;;;;;;;;;;;;;14.10;38.19;96472.31;4990005;28;19994;-78
2022/10/19 10:00:59;;;;;;;;;;;;;;;14.37;38.73;96472.75;5006499;28;19981;-78
2022/10/19 10:03:24;;;;;;;;;;;;;;;14.23;38.61;96460.97;4973787;28;20073;-79
2022/10/19 10:05:50;;;;;;;;;;;;;;;14.33;38.54;96462.41;5005006;28;20047;-77
2022/10/19 10:08:16;;;;;;;;;;;;;;;14.25;38.12;96464.31;5014957;28;19985;-78
2022/10/19 10:10:42;;;;;;;;;;;;;;;14.18;38.57;96466.91;5016193;28;20000;-79
2022/10/19 10:13:15;;;;;;;;;;;;;;;14.31;38.20;96458.25;5003669;28;19973;-77
2022/10/19 10:15:42;;;;;;;;;;;;;;;14.22;38.36;96462.84;5000328;28;20076;-78
2022/10/19 10:18:13;;;;;;;;;;;;;;;14.59;36.85;96463.00;4978734;28;19998;-79
2022/10/19 10:20:41;;;;;;;;;;;;;;;14.88;36.35;96463.22;5003103;28;20319;-79
2022/10/19 10:23:11;;;;;;;;;;;;;;;14.88;37.32;96453.34;5000300;28;20292;-77
2022/10/19 10:25:37;;;;;;;;;;;;;;;14.95;35.67;96458.78;4986107;28;20080;-78
2022/10/19 10:28:18;;;;;;;;;;;;;;;15.16;35.34;96465.25;4989336;28;19972;-78
2022/10/19 10:30:44;;;;;;;;;;;;;;;15.20;35.46;96459.31;5002191;28;19984;-78
2022/10/19 10:33:13;;;;;;;;;;;;;;;14.84;36.57;96454.72;4988683;28;20005;-78
2022/10/19 10:35:38;;;;;;;;;;;;;;;15.10;35.85;96461.47;4986901;28;19981;-79
2022/10/19 10:38:13;;;;;;;;;;;;;;;14.96;35.25;96455.91;5001920;28;19994;-78
2022/10/19 10:40:38;;;;;;;;;;;;;;;15.39;34.46;96459.75;5007126;28;19989;-78
2022/10/19 10:43:08;;;;;;;;;;;;;;;15.34;35.97;96462.19;5008941;28;20053;-77
2022/10/19 10:45:47;;;;;;;;;;;;;;;15.41;35.30;96465.78;5008993;28;20041;-77
2022/10/19 10:50:39;;;;;;;;;;;;;;;15.35;34.97;96455.78;4990504;28;20050;-76
2022/10/19 10:53:05;;;;;;;;;;;;;;;15.58;34.99;96458.38;4981756;28;20039;-78
2022/10/19 10:55:31;;;;;;;;;;;;;;;16.19;34.16;96452.72;4980862;28;20520;-77
2022/10/19 10:58:09;;;;;;;;;;;;;;;16.31;33.68;96451.19;4958227;28;19997;-77
2022/10/19 11:00:37;;;;;;;;;;;;;;;16.58;33.06;96448.72;4992037;28;20080;-78
2022/10/19 11:03:22;;;;;;;;;;;;;;;16.56;34.42;96450.78;4981153;28;19973;-77
2022/10/19 11:05:49;;;;;;;;;;;;;;;16.89;33.60;96439.41;4964882;28;20233;-80
2022/10/19 11:08:20;;;;;;;;;;;;;;;16.98;33.38;96429.31;4963810;28;20070;-79
2022/10/19 11:10:47;;;;;;;;;;;;;;;17.10;33.89;96431.44;4959534;28;20324;-78
2022/10/19 11:13:13;;;;;;;;;;;;;;;17.15;33.75;96419.06;4948648;28;20433;-79
2022/10/19 11:15:54;;;;;;;;;;;;;;;17.60;32.90;96416.91;4980789;28;19974;-79
2022/10/19 11:18:23;;;;;;;;;;;;;;;17.79;32.61;96409.94;4963055;28;19997;-79
2022/10/19 11:20:52;;;;;;;;;;;;;;;17.95;31.48;96402.50;4962953;28;20260;-78
2022/10/19 11:23:19;;;;;;;;;;;;;;;18.09;30.77;96400.66;4963774;28;19974;-77
2022/10/19 11:25:44;;;;;;;;;;;;;;;18.36;29.25;96409.53;4946035;28;19992;-79
2022/10/19 11:28:10;;;;;;;;;;;;;;;18.36;28.98;96400.63;4981538;28;20386;-77
2022/10/19 11:30:36;;;;;;;;;;;;;;;18.31;28.80;96399.41;4981936;28;20099;-77
2022/10/19 11:33:06;;;;;;;;;;;;;;;18.20;31.01;96400.03;4965782;28;20016;-78
2022/10/19 11:35:41;;;;;;;;;;;;;;;17.79;32.10;96391.06;4957415;28;19972;-77
2022/10/19 11:38:12;;;;;;;;;;;;;;;17.44;32.83;96392.03;4984103;28;20538;-77
2022/10/19 11:40:39;;;;;;;;;;;;;;;18.26;31.32;96393.78;4983826;28;20262;-78
2022/10/19 11:43:07;;;;;;;;;;;;;;;18.77;30.93;96387.94;4962721;28;19963;-78
2022/10/19 11:45:51;;;;;;;;;;;;;;;19.12;30.05;96384.91;4954580;28;20033;-78
2022/10/19 11:48:19;;;;;;;;;;;;;;;19.11;30.44;96377.03;4980126;28;20073;-77
2022/10/19 11:50:47;;;;;;;;;;;;;;;19.85;29.01;96360.38;4980724;28;19986;-77
2022/10/19 11:53:25;;;;;;;;;;;;;;;19.96;28.27;96367.00;4945027;28;19983;-79
2022/10/19 11:56:01;;;;;;;;;;;;;;;20.11;28.37;96372.06;4981709;28;20602;-77
2022/10/19 11:58:45;;;;;;;;;;;;;;;20.74;27.49;96362.09;4963521;28;20414;-78
2022/10/19 12:01:11;;;;;;;;;;;;;;;20.91;28.26;96356.13;4983310;28;20493;-79
2022/10/19 12:03:37;;;;;;;;;;;;;;;20.67;27.29;96360.53;4983848;28;20054;-77
2022/10/19 12:06:16;;;;;;;;;;;;;;;21.47;27.41;96361.44;4984527;28;20083;-78
2022/10/19 12:08:44;;;;;;;;;;;;;;;22.01;26.25;96348.97;4964088;28;20426;-78
2022/10/19 12:11:10;;;;;;;;;;;;;;;22.66;25.31;96344.50;4966819;28;19950;-79
2022/10/19 12:13:43;;;;;;;;;;;;;;;23.27;24.93;96353.31;4984356;28;19962;-79
2022/10/19 12:16:09;;;;;;;;;;;;;;;24.42;24.60;96343.31;4958581;28;19977;-78
2022/10/19 12:18:34;;;;;;;;;;;;;;;25.51;22.81;96346.56;4959650;28;19963;-79
2022/10/19 12:21:26;;;;;;;;;;;;;;;27.02;20.51;96347.59;4984414;28;20204;-76
2022/10/19 12:23:51;;;;;;;;;;;;;;;27.97;19.83;96339.34;4964903;28;19937;-80
2022/10/19 12:26:17;;;;;;;;;;;;;;;28.95;19.03;96337.53;4943855;28;19964;-78
2022/10/19 12:28:49;;;;;;;;;;;;;;;30.27;18.14;96330.91;4967766;28;19932;-78
2022/10/19 12:31:14;;;;;;;;;;;;;;;30.64;16.57;96323.09;4967006;28;20311;-78
2022/10/19 12:33:52;;;;;;;;;;;;;;;31.66;16.48;96321.25;4985634;28;20349;-80
2022/10/19 12:36:17;;;;;;;;;;;;;;;32.82;15.13;96324.47;4986361;28;19961;-80
2022/10/19 12:38:51;;;;;;;;;;;;;;;33.79;13.84;96311.59;4985105;28;20382;-79
2022/10/19 12:41:23;;;;;;;;;;;;;;;34.59;13.84;96301.81;4983499;28;19929;-78
2022/10/19 12:43:51;;;;;;;;;;;;;;;35.77;13.05;96304.13;4962804;28;20008;-80
2022/10/19 12:46:28;;;;;;;;;;;;;;;35.79;11.82;96306.59;4962145;28;20174;-79
2022/10/19 12:49:13;;;;;;;;;;;;;;;35.88;12.18;96296.28;4982699;28;19933;-79
2022/10/19 12:51:44;;;;;;;;;;;;;;;36.03;12.15;96294.16;4988129;28;19994;-79
2022/10/19 12:54:09;;;;;;;;;;;;;;;37.59;10.97;96286.47;4969716;28;19922;-76
2022/10/19 12:56:45;;;;;;;;;;;;;;;37.25;10.51;96280.06;4966217;28;20289;-79
2022/10/19 12:59:11;;;;;;;;;;;;;;;35.66;12.49;96278.75;4937510;28;19993;-79